Lulu Pass Weather Station

This weather station is located at 10020ft near Lulu Pass at the head of Fisher Creek. This data can be used with temperature and precipitation data from the Fisher Creek SNOTEL site. This data can be viewed directly on datagarrison.com

Elevation
10020ft
Jump to table bottom
Date Time Temperature
deg F
RH, % Wind Speed Wind Gust Wind Direction
10/04/23 15:00 30.5 98 14 24 W - 292
10/04/23 14:00 30.8 98 15 24 NW - 299
10/04/23 13:00 30.8 98 13 20 NW - 298
10/04/23 12:00 30.8 98 14 22 NW - 296
10/04/23 11:00 29.9 98 16 24 NW - 302
10/04/23 10:00 30.3 98 12 24 NW - 299
10/04/23 09:00 27.9 98 10 18 NW - 298
10/04/23 08:00 27.4 98 10 19 W - 291
10/04/23 07:00 26.7 98 10 18 NW - 295
10/04/23 06:00 26.6 98 11 22 NW - 293
10/04/23 05:00 26.9 98 9 17 W - 286
10/04/23 04:00 27.4 98 7 17 W - 288
10/04/23 03:00 27.9 98 7 15 W - 291
10/04/23 02:00 27.9 98 9 14 NW - 303
10/04/23 01:00 27.8 98 10 17 NW - 306
10/04/23 00:00 27.6 98 9 111 NW - 310
10/03/23 23:00 27.4 98 6 106 NW - 305
10/03/23 22:00 27.6 98 7 13 NW - 321
10/03/23 21:00 27.5 98 8 15 NW - 314
10/03/23 20:00 27.0 98 2 8 NW - 309
10/03/23 19:00 27.3 98 4 13 NW - 307
10/03/23 18:00 27.4 98 10 16 NW - 319
10/03/23 17:00 28.3 98 10 16 NW - 312
10/03/23 16:00 28.4 98 17 24 NW - 324
10/03/23 15:00 29.1 98 17 26 NW - 320
10/03/23 14:00 29.4 98 15 23 NW - 313
10/03/23 13:00 29.0 98 16 27 NW - 310
10/03/23 12:00 28.8 98 14 21 NW - 310
10/03/23 11:00 28.7 98 13 18 NW - 316
10/03/23 10:00 27.9 98 10 15 NW - 319
10/03/23 09:00 27.9 98 9 12 NW - 319
10/03/23 08:00 27.4 98 9 11 NW - 317
10/03/23 07:00 27.0 98 8 11 NW - 310
10/03/23 06:00 27.0 98 8 12 NW - 312
10/03/23 05:00 27.2 98 11 16 NW - 320
10/03/23 04:00 27.4 98 11 15 NW - 320
10/03/23 03:00 27.7 98 7 13 NW - 305
10/03/23 02:00 27.9 98 5 13 W - 284
10/03/23 01:00 28.2 98 4 10 SW - 237
10/03/23 00:00 28.5 98 5 13 W - 253
10/02/23 23:00 28.6 98 5 10 SW - 234
10/02/23 22:00 29.3 98 4 10 W - 268
10/02/23 21:00 29.5 98 5 11 SW - 230
10/02/23 20:00 30.0 97 7 17 SW - 218
10/02/23 19:00 31.4 94 8 19 SW - 211
10/02/23 18:00 32.7 92 9 25 SW - 208
10/02/23 17:00 33.6 95 12 27 SW - 206
10/02/23 16:00 32.3 96 7 20 SW - 227
10/02/23 15:00 36.3 93 4 12 NW - 312
10/02/23 14:00 36.6 91 4 14 NW - 307